WetterOnline ( https://www.wetteronline.de )

Wetter aktuell Itzehoe

Aktuelles Wetter: Itzehoe (26m)

6-stündlich | Neueste Meldungen
Ortszeit Temperatur Wetter
Do, 22.02. 13:00 10.7° C bedeckt
Do, 22.02. 7:00 7.9° C bedeckt
Do, 22.02. 1:00 7.3° C leichter Regen
Mi, 21.02. 19:00 8.7° C bewölkt
Mi, 21.02. 13:00 9.1° C leichter Regen
Mi, 21.02. 7:00 8.0° C Sprühregen
Mi, 21.02. 1:00 8.9° C bedeckt
Di, 20.02. 19:00 8.1° C wolkig
Ortszeit Temperatur Wetter
Do, 22.02. 18:30 10.7° C Sprühregen
Do, 22.02. 18:20 10.7° C Sprühregen
Do, 22.02. 18:10 10.6° C bedeckt
Do, 22.02. 18:00 10.5° C bedeckt
Do, 22.02. 17:50 10.5° C bedeckt
Do, 22.02. 17:40 10.5° C bedeckt
Do, 22.02. 17:30 10.6° C bewölkt
Do, 22.02. 17:00 10.9° C bedeckt
Do, 22.02. 16:30 10.9° C bedeckt
Do, 22.02. 16:00 11.3° C bewölkt
Do, 22.02. 15:30 11.3° C bedeckt
Ortszeit Relative Feuchte Sichtweite
Do, 22.02. 13:00 94% 35 km
Do, 22.02. 7:00 99% 4.4 km
Do, 22.02. 1:00 92% 13 km
Mi, 21.02. 19:00 80% 35 km
Mi, 21.02. 13:00 97% 3.1 km
Mi, 21.02. 7:00 96% 4.7 km
Mi, 21.02. 1:00 91% 11 km
Di, 20.02. 19:00 87% 19 km
Ortszeit Relative Feuchte Sichtweite
Do, 22.02. 18:30 87% 7 km
Do, 22.02. 18:20 87% -
Do, 22.02. 18:10 86% -
Do, 22.02. 18:00 86% 35 km
Do, 22.02. 17:50 86% -
Do, 22.02. 17:40 85% -
Do, 22.02. 17:30 85% 35 km
Do, 22.02. 17:00 85% 30 km
Do, 22.02. 16:30 83% 30 km
Do, 22.02. 16:00 83% 30 km
Do, 22.02. 15:30 82% 30 km
Ortszeit Niederschlagsmenge Niederschlagsart
Do, 22.02. 13:00 0.3 l/m2 in 6 Std. Regen
Do, 22.02. 7:00 7 l/m2 in 12 Std. Regen
Do, 22.02. 1:00 3 l/m2 in 6 Std. Regen
Mi, 21.02. 19:00 0.9 l/m2 in 12 Std. Regen
Mi, 21.02. 13:00 0.4 l/m2 in 6 Std. Regen
Mi, 21.02. 7:00 4 l/m2 in 12 Std. Regen
Mi, 21.02. 1:00 0.1 l/m2 in 6 Std. Regen
Di, 20.02. 19:00 0.0 l/m2 in 12 Std. -
Ortszeit Niederschlagsmenge Niederschlagsart
Do, 22.02. 18:30 <0.05 l/m2 in 30 Min -
Do, 22.02. 18:20 keine Meldung -
Do, 22.02. 18:10 keine Meldung -
Do, 22.02. 18:00 0.0 l/m2 in 1 Std. -
Do, 22.02. 17:50 keine Meldung -
Do, 22.02. 17:40 keine Meldung -
Do, 22.02. 17:30 0.0 l/m2 in 30 Min -
Do, 22.02. 17:00 0.0 l/m2 in 1 Std. -
Do, 22.02. 16:30 0.0 l/m2 in 30 Min -
Do, 22.02. 16:00 0.0 l/m2 in 1 Std. Regen
Do, 22.02. 15:30 0.0 l/m2 in 30 Min -
Ortszeit Stärke Spitze Richtung
km/h Bft. km/h Grad Sektor
Do, 22.02. 13:00 7 2 22 170° S
Do, 22.02. 7:00 7 2 32 190° S
Do, 22.02. 1:00 17 3 39 170° S
Mi, 21.02. 19:00 11 2 32 160° S
Mi, 21.02. 13:00 7 2 25 210° SW
Mi, 21.02. 7:00 9 2 33 250° W
Mi, 21.02. 1:00 15 3 31 230° SW
Di, 20.02. 19:00 9 2 28 210° SW
Ortszeit Stärke Spitze Richtung
km/h Bft. km/h Grad Sektor
Do, 22.02. 18:30 13 3 26 130° SO
Do, 22.02. 18:20 13 3 - 130° SO
Do, 22.02. 18:10 11 2 - 130° SO
Do, 22.02. 18:00 11 2 29 130° SO
Do, 22.02. 17:50 11 2 - 130° SO
Do, 22.02. 17:40 11 2 - 130° SO
Do, 22.02. 17:30 11 2 25 130° SO
Do, 22.02. 17:00 14 3 25 120° SO
Do, 22.02. 16:30 11 2 22 130° SO
Do, 22.02. 16:00 9 2 24 150° SO
Do, 22.02. 15:30 11 2 24 160° S
Ortszeit Untergrenze Bedeckung Gattung
total tief tief mittel hoch
Do, 22.02. 13:00 180 m 8/8 8/8 - - -
Do, 22.02. 7:00 90 m 8/8 8/8 - - -
Do, 22.02. 1:00 360 m 8/8 8/8 - - -
Mi, 21.02. 19:00 3300 m 7/8 7/8 - - -
Mi, 21.02. 13:00 180 m 7/8 7/8 - - -
Mi, 21.02. 7:00 240 m 7/8 7/8 - - -
Mi, 21.02. 1:00 330 m 8/8 8/8 - - -
Di, 20.02. 19:00 2700 m 7/8 4/8 - - -
Ortszeit Bedeckungsgrad in Achtel und Wolkenuntergrenze
Do, 22.02. 18:30 7(510m)
Do, 22.02. 18:20 7(510m)
Do, 22.02. 18:10 8
Do, 22.02. 18:00 8(600m)
Do, 22.02. 17:50 8(600m)
Do, 22.02. 17:40 8
Do, 22.02. 17:30 5(690m) 8(4200m) 8(6600m)
Do, 22.02. 17:00 4(4500m) 8(5400m) 8(6000m)
Do, 22.02. 16:30 8(5400m) 8(6900m)
Do, 22.02. 16:00 1(810m) 6(990m) 7(5400m)
Do, 22.02. 15:30 1(660m) 8(1020m)
Ortszeit Luftdruck NN (hPa) Tendenz (hPa in 3 Std.)
Do, 22.02. 13:00 989 - 3,0
Do, 22.02. 7:00 993 - 2,0
Do, 22.02. 1:00 999 - 3,6
Mi, 21.02. 19:00 1006 - 3,4
Mi, 21.02. 13:00 1013 - 1,7
Mi, 21.02. 7:00 1014 - 0,2
Mi, 21.02. 1:00 1017 - 1,8
Di, 20.02. 19:00 1021 - 1,5
Ortszeit Luftdruck NN (hPa) Tendenz (hPa in 3 Std.)
Do, 22.02. 18:30 981 - 5,1
Do, 22.02. 18:20 981 keine Meldung
Do, 22.02. 18:10 981 keine Meldung
Do, 22.02. 18:00 982 - 5,2
Do, 22.02. 17:50 982 keine Meldung
Do, 22.02. 17:40 982 keine Meldung
Do, 22.02. 17:30 983 - 4,8
Do, 22.02. 17:00 983 - 5,0
Do, 22.02. 16:30 984 - 5,1
Do, 22.02. 16:00 985 - 4,2
Do, 22.02. 15:30 986 - 3,7
Ortszeit Schneehöhe (cm)
Do, 22.02. 13:00 -
Do, 22.02. 7:00 -
Do, 22.02. 1:00 -
Mi, 21.02. 19:00 -
Mi, 21.02. 13:00 -
Mi, 21.02. 7:00 -
Mi, 21.02. 1:00 -
Di, 20.02. 19:00 -
Ortszeit Schneehöhe (cm)
Do, 22.02. 18:30 -
Do, 22.02. 18:20 -
Do, 22.02. 18:10 -
Do, 22.02. 18:00 -
Do, 22.02. 17:50 -
Do, 22.02. 17:40 -
Do, 22.02. 17:30 -
Do, 22.02. 17:00 -
Do, 22.02. 16:30 -
Do, 22.02. 16:00 -
Do, 22.02. 15:30 -
Link zu dieser Seite / Seite empfehlen

Das Wetter in ...